sensor_id;sensor_type;location;lat;lon;timestamp;P1;durP1;ratioP1;P2;durP2;ratioP2
19739;SDS011;10027;51.066;13.768;2023-04-24T00:01:25;10.50;;;4.97;;
19739;SDS011;10027;51.066;13.768;2023-04-24T00:03:53;5.30;;;3.67;;
19739;SDS011;10027;51.066;13.768;2023-04-24T00:06:20;4.37;;;3.60;;
19739;SDS011;10027;51.066;13.768;2023-04-24T00:08:49;10.53;;;5.47;;
19739;SDS011;10027;51.066;13.768;2023-04-24T00:11:16;4.87;;;3.30;;
19739;SDS011;10027;51.066;13.768;2023-04-24T00:13:44;4.00;;;3.10;;
19739;SDS011;10027;51.066;13.768;2023-04-24T00:16:11;4.70;;;3.20;;
19739;SDS011;10027;51.066;13.768;2023-04-24T00:18:38;5.80;;;3.50;;
19739;SDS011;10027;51.066;13.768;2023-04-24T00:21:05;3.77;;;2.73;;
19739;SDS011;10027;51.066;13.768;2023-04-24T00:23:33;4.47;;;3.23;;
19739;SDS011;10027;51.066;13.768;2023-04-24T00:26:00;3.67;;;3.17;;
19739;SDS011;10027;51.066;13.768;2023-04-24T00:28:28;3.70;;;3.03;;
19739;SDS011;10027;51.066;13.768;2023-04-24T00:30:55;5.00;;;2.80;;
19739;SDS011;10027;51.066;13.768;2023-04-24T00:33:22;3.63;;;2.90;;
19739;SDS011;10027;51.066;13.768;2023-04-24T00:35:49;6.50;;;3.33;;
19739;SDS011;10027;51.066;13.768;2023-04-24T00:38:16;3.30;;;2.90;;
19739;SDS011;10027;51.066;13.768;2023-04-24T00:40:43;4.00;;;3.20;;
19739;SDS011;10027;51.066;13.768;2023-04-24T00:43:11;4.67;;;3.27;;
19739;SDS011;10027;51.066;13.768;2023-04-24T00:45:38;3.83;;;3.00;;
19739;SDS011;10027;51.066;13.768;2023-04-24T00:48:05;5.97;;;3.10;;
19739;SDS011;10027;51.066;13.768;2023-04-24T00:50:32;4.70;;;3.00;;
19739;SDS011;10027;51.066;13.768;2023-04-24T00:53:00;5.17;;;3.20;;
19739;SDS011;10027;51.066;13.768;2023-04-24T00:55:27;4.63;;;3.30;;
19739;SDS011;10027;51.066;13.768;2023-04-24T00:57:54;5.17;;;3.00;;
19739;SDS011;10027;51.066;13.768;2023-04-24T01:00:21;3.80;;;3.27;;
19739;SDS011;10027;51.066;13.768;2023-04-24T01:02:49;3.83;;;2.80;;
19739;SDS011;10027;51.066;13.768;2023-04-24T01:05:18;5.30;;;3.03;;
19739;SDS011;10027;51.066;13.768;2023-04-24T01:07:45;3.50;;;3.20;;
19739;SDS011;10027;51.066;13.768;2023-04-24T01:10:13;4.57;;;3.10;;
19739;SDS011;10027;51.066;13.768;2023-04-24T01:12:41;3.90;;;2.80;;
19739;SDS011;10027;51.066;13.768;2023-04-24T01:15:08;4.60;;;2.90;;
19739;SDS011;10027;51.066;13.768;2023-04-24T01:17:35;3.57;;;3.10;;
19739;SDS011;10027;51.066;13.768;2023-04-24T01:20:03;5.20;;;2.97;;
19739;SDS011;10027;51.066;13.768;2023-04-24T01:22:33;4.83;;;3.10;;
19739;SDS011;10027;51.066;13.768;2023-04-24T01:25:00;3.60;;;3.03;;
19739;SDS011;10027;51.066;13.768;2023-04-24T01:27:28;3.50;;;2.80;;
19739;SDS011;10027;51.066;13.768;2023-04-24T01:29:55;4.80;;;3.60;;
19739;SDS011;10027;51.066;13.768;2023-04-24T01:32:23;6.47;;;3.00;;
19739;SDS011;10027;51.066;13.768;2023-04-24T01:34:50;3.27;;;2.90;;
19739;SDS011;10027;51.066;13.768;2023-04-24T01:37:18;4.80;;;3.40;;
19739;SDS011;10027;51.066;13.768;2023-04-24T01:39:45;4.10;;;3.10;;
19739;SDS011;10027;51.066;13.768;2023-04-24T01:42:12;3.57;;;2.97;;
19739;SDS011;10027;51.066;13.768;2023-04-24T01:44:40;4.40;;;3.10;;
19739;SDS011;10027;51.066;13.768;2023-04-24T01:47:08;3.53;;;2.97;;
19739;SDS011;10027;51.066;13.768;2023-04-24T01:49:35;4.20;;;3.50;;
19739;SDS011;10027;51.066;13.768;2023-04-24T01:54:33;5.87;;;3.57;;
19739;SDS011;10027;51.066;13.768;2023-04-24T01:57:00;4.00;;;2.97;;
19739;SDS011;10027;51.066;13.768;2023-04-24T01:59:28;6.20;;;3.20;;
19739;SDS011;10027;51.066;13.768;2023-04-24T02:01:56;4.07;;;3.03;;
19739;SDS011;10027;51.066;13.768;2023-04-24T02:04:23;7.33;;;3.47;;
19739;SDS011;10027;51.066;13.768;2023-04-24T02:06:51;4.47;;;3.40;;
19739;SDS011;10027;51.066;13.768;2023-04-24T02:09:18;4.23;;;3.23;;
19739;SDS011;10027;51.066;13.768;2023-04-24T02:11:45;3.63;;;3.07;;
19739;SDS011;10027;51.066;13.768;2023-04-24T02:14:12;3.40;;;3.10;;
19739;SDS011;10027;51.066;13.768;2023-04-24T02:16:39;4.60;;;3.27;;
19739;SDS011;10027;51.066;13.768;2023-04-24T02:19:06;4.03;;;3.30;;
19739;SDS011;10027;51.066;13.768;2023-04-24T02:21:33;8.00;;;3.47;;
19739;SDS011;10027;51.066;13.768;2023-04-24T02:24:01;4.00;;;3.50;;
19739;SDS011;10027;51.066;13.768;2023-04-24T02:26:28;3.50;;;2.80;;
19739;SDS011;10027;51.066;13.768;2023-04-24T02:28:57;3.83;;;3.30;;
19739;SDS011;10027;51.066;13.768;2023-04-24T02:31:24;4.10;;;3.23;;
19739;SDS011;10027;51.066;13.768;2023-04-24T02:33:51;5.27;;;3.50;;
19739;SDS011;10027;51.066;13.768;2023-04-24T02:36:18;4.80;;;3.40;;
19739;SDS011;10027;51.066;13.768;2023-04-24T02:38:45;4.07;;;3.10;;
19739;SDS011;10027;51.066;13.768;2023-04-24T02:41:12;4.00;;;3.00;;
19739;SDS011;10027;51.066;13.768;2023-04-24T02:43:39;3.93;;;3.40;;
19739;SDS011;10027;51.066;13.768;2023-04-24T02:46:06;5.03;;;3.17;;
19739;SDS011;10027;51.066;13.768;2023-04-24T02:48:34;5.47;;;3.27;;
19739;SDS011;10027;51.066;13.768;2023-04-24T02:51:01;6.23;;;3.17;;
19739;SDS011;10027;51.066;13.768;2023-04-24T02:53:28;4.53;;;3.40;;
19739;SDS011;10027;51.066;13.768;2023-04-24T02:55:56;4.07;;;3.00;;
19739;SDS011;10027;51.066;13.768;2023-04-24T02:58:23;5.27;;;3.20;;
19739;SDS011;10027;51.066;13.768;2023-04-24T03:00:54;6.37;;;3.60;;
19739;SDS011;10027;51.066;13.768;2023-04-24T03:03:22;4.60;;;3.37;;
19739;SDS011;10027;51.066;13.768;2023-04-24T03:05:50;3.97;;;3.20;;
19739;SDS011;10027;51.066;13.768;2023-04-24T03:08:17;3.77;;;2.90;;
19739;SDS011;10027;51.066;13.768;2023-04-24T03:10:44;3.83;;;2.80;;
19739;SDS011;10027;51.066;13.768;2023-04-24T03:13:13;3.57;;;2.90;;
19739;SDS011;10027;51.066;13.768;2023-04-24T03:15:40;3.10;;;2.80;;
19739;SDS011;10027;51.066;13.768;2023-04-24T03:18:07;4.07;;;2.90;;
19739;SDS011;10027;51.066;13.768;2023-04-24T03:20:35;4.47;;;3.60;;
19739;SDS011;10027;51.066;13.768;2023-04-24T03:23:03;4.37;;;3.20;;
19739;SDS011;10027;51.066;13.768;2023-04-24T03:25:30;6.03;;;3.20;;
19739;SDS011;10027;51.066;13.768;2023-04-24T03:27:57;5.27;;;3.30;;
19739;SDS011;10027;51.066;13.768;2023-04-24T03:30:24;4.77;;;3.40;;
19739;SDS011;10027;51.066;13.768;2023-04-24T03:32:52;3.83;;;3.33;;
19739;SDS011;10027;51.066;13.768;2023-04-24T03:35:19;5.67;;;3.50;;
19739;SDS011;10027;51.066;13.768;2023-04-24T03:37:48;5.50;;;3.57;;
19739;SDS011;10027;51.066;13.768;2023-04-24T03:40:15;5.00;;;3.30;;
19739;SDS011;10027;51.066;13.768;2023-04-24T03:42:42;5.67;;;3.80;;
19739;SDS011;10027;51.066;13.768;2023-04-24T03:45:09;5.57;;;3.60;;
19739;SDS011;10027;51.066;13.768;2023-04-24T03:47:36;3.73;;;3.33;;
19739;SDS011;10027;51.066;13.768;2023-04-24T03:50:03;4.83;;;3.60;;
19739;SDS011;10027;51.066;13.768;2023-04-24T03:52:31;5.23;;;3.60;;
19739;SDS011;10027;51.066;13.768;2023-04-24T03:54:58;4.07;;;3.30;;
19739;SDS011;10027;51.066;13.768;2023-04-24T03:57:25;7.30;;;3.50;;
19739;SDS011;10027;51.066;13.768;2023-04-24T03:59:52;5.27;;;3.53;;
19739;SDS011;10027;51.066;13.768;2023-04-24T04:02:19;4.37;;;3.30;;
19739;SDS011;10027;51.066;13.768;2023-04-24T04:04:47;5.10;;;3.50;;
19739;SDS011;10027;51.066;13.768;2023-04-24T04:07:14;5.33;;;3.47;;
19739;SDS011;10027;51.066;13.768;2023-04-24T04:09:41;5.90;;;3.47;;
19739;SDS011;10027;51.066;13.768;2023-04-24T04:12:09;5.77;;;3.70;;
19739;SDS011;10027;51.066;13.768;2023-04-24T04:14:36;3.40;;;2.83;;
19739;SDS011;10027;51.066;13.768;2023-04-24T04:17:04;2.70;;;2.23;;
19739;SDS011;10027;51.066;13.768;2023-04-24T04:19:31;3.00;;;2.70;;
19739;SDS011;10027;51.066;13.768;2023-04-24T04:21:58;3.77;;;2.80;;
19739;SDS011;10027;51.066;13.768;2023-04-24T04:24:25;3.43;;;2.50;;
19739;SDS011;10027;51.066;13.768;2023-04-24T04:26:52;3.93;;;2.80;;
19739;SDS011;10027;51.066;13.768;2023-04-24T04:29:22;3.47;;;2.70;;
19739;SDS011;10027;51.066;13.768;2023-04-24T04:31:50;7.00;;;1.87;;
19739;SDS011;10027;51.066;13.768;2023-04-24T04:34:17;3.77;;;2.60;;
19739;SDS011;10027;51.066;13.768;2023-04-24T04:36:44;4.23;;;2.50;;
19739;SDS011;10027;51.066;13.768;2023-04-24T04:39:12;3.60;;;2.70;;
19739;SDS011;10027;51.066;13.768;2023-04-24T04:41:41;2.47;;;2.13;;
19739;SDS011;10027;51.066;13.768;2023-04-24T04:44:08;2.70;;;2.20;;
19739;SDS011;10027;51.066;13.768;2023-04-24T04:46:35;4.13;;;2.70;;
19739;SDS011;10027;51.066;13.768;2023-04-24T04:49:03;1.97;;;1.70;;
19739;SDS011;10027;51.066;13.768;2023-04-24T04:51:30;2.87;;;1.90;;
19739;SDS011;10027;51.066;13.768;2023-04-24T04:53:58;2.23;;;1.70;;
19739;SDS011;10027;51.066;13.768;2023-04-24T04:56:25;2.80;;;1.80;;
19739;SDS011;10027;51.066;13.768;2023-04-24T04:58:52;3.73;;;2.23;;
19739;SDS011;10027;51.066;13.768;2023-04-24T05:01:19;2.83;;;2.10;;
19739;SDS011;10027;51.066;13.768;2023-04-24T05:03:49;2.57;;;1.83;;
19739;SDS011;10027;51.066;13.768;2023-04-24T05:06:16;2.73;;;1.47;;
19739;SDS011;10027;51.066;13.768;2023-04-24T05:08:43;6.60;;;2.10;;
19739;SDS011;10027;51.066;13.768;2023-04-24T05:11:10;1.37;;;1.13;;
19739;SDS011;10027;51.066;13.768;2023-04-24T05:13:38;1.53;;;1.20;;
19739;SDS011;10027;51.066;13.768;2023-04-24T05:16:06;1.93;;;1.33;;
19739;SDS011;10027;51.066;13.768;2023-04-24T05:18:33;1.50;;;1.40;;
19739;SDS011;10027;51.066;13.768;2023-04-24T05:21:01;3.07;;;1.33;;
19739;SDS011;10027;51.066;13.768;2023-04-24T05:23:28;2.00;;;1.10;;
19739;SDS011;10027;51.066;13.768;2023-04-24T05:25:55;3.77;;;1.10;;
19739;SDS011;10027;51.066;13.768;2023-04-24T05:28:22;1.93;;;1.47;;
19739;SDS011;10027;51.066;13.768;2023-04-24T05:30:49;4.67;;;1.60;;
19739;SDS011;10027;51.066;13.768;2023-04-24T05:33:16;1.03;;;0.93;;
19739;SDS011;10027;51.066;13.768;2023-04-24T05:35:43;2.70;;;1.23;;
19739;SDS011;10027;51.066;13.768;2023-04-24T05:38:12;2.43;;;1.13;;
19739;SDS011;10027;51.066;13.768;2023-04-24T05:40:40;2.10;;;1.37;;
19739;SDS011;10027;51.066;13.768;2023-04-24T05:43:07;3.83;;;1.50;;
19739;SDS011;10027;51.066;13.768;2023-04-24T05:45:34;1.83;;;1.47;;
19739;SDS011;10027;51.066;13.768;2023-04-24T05:48:02;2.80;;;1.33;;
19739;SDS011;10027;51.066;13.768;2023-04-24T05:50:29;2.30;;;1.50;;
19739;SDS011;10027;51.066;13.768;2023-04-24T05:52:57;1.87;;;1.30;;
19739;SDS011;10027;51.066;13.768;2023-04-24T05:55:24;2.00;;;1.47;;
19739;SDS011;10027;51.066;13.768;2023-04-24T05:57:52;1.57;;;1.33;;
19739;SDS011;10027;51.066;13.768;2023-04-24T06:00:19;2.57;;;1.47;;
19739;SDS011;10027;51.066;13.768;2023-04-24T06:02:46;2.37;;;1.60;;
19739;SDS011;10027;51.066;13.768;2023-04-24T06:05:14;5.43;;;1.60;;
19739;SDS011;10027;51.066;13.768;2023-04-24T06:07:41;8.03;;;1.47;;
19739;SDS011;10027;51.066;13.768;2023-04-24T06:10:08;1.80;;;1.60;;
19739;SDS011;10027;51.066;13.768;2023-04-24T06:12:36;2.27;;;1.80;;
19739;SDS011;10027;51.066;13.768;2023-04-24T06:15:03;2.90;;;1.70;;
19739;SDS011;10027;51.066;13.768;2023-04-24T06:17:31;3.77;;;1.80;;
19739;SDS011;10027;51.066;13.768;2023-04-24T06:19:58;2.90;;;1.60;;
19739;SDS011;10027;51.066;13.768;2023-04-24T06:22:25;2.50;;;1.50;;
19739;SDS011;10027;51.066;13.768;2023-04-24T06:24:52;2.27;;;1.43;;
19739;SDS011;10027;51.066;13.768;2023-04-24T06:27:20;5.20;;;1.50;;
19739;SDS011;10027;51.066;13.768;2023-04-24T06:29:47;2.07;;;1.10;;
19739;SDS011;10027;51.066;13.768;2023-04-24T06:32:23;1.60;;;1.50;;
19739;SDS011;10027;51.066;13.768;2023-04-24T06:34:51;2.27;;;1.30;;
19739;SDS011;10027;51.066;13.768;2023-04-24T06:37:19;1.80;;;1.00;;
19739;SDS011;10027;51.066;13.768;2023-04-24T06:39:47;1.10;;;1.00;;
19739;SDS011;10027;51.066;13.768;2023-04-24T06:42:14;2.47;;;1.10;;
19739;SDS011;10027;51.066;13.768;2023-04-24T06:44:41;0.80;;;0.57;;
19739;SDS011;10027;51.066;13.768;2023-04-24T06:47:11;1.40;;;0.60;;
19739;SDS011;10027;51.066;13.768;2023-04-24T06:49:39;1.10;;;0.60;;
19739;SDS011;10027;51.066;13.768;2023-04-24T06:52:07;2.83;;;0.70;;
19739;SDS011;10027;51.066;13.768;2023-04-24T06:54:34;1.43;;;0.70;;
19739;SDS011;10027;51.066;13.768;2023-04-24T06:57:01;0.60;;;0.53;;
19739;SDS011;10027;51.066;13.768;2023-04-24T06:59:29;0.60;;;0.50;;
19739;SDS011;10027;51.066;13.768;2023-04-24T07:01:56;0.83;;;0.40;;
19739;SDS011;10027;51.066;13.768;2023-04-24T07:04:24;1.67;;;0.70;;
19739;SDS011;10027;51.066;13.768;2023-04-24T07:06:52;3.00;;;0.60;;
19739;SDS011;10027;51.066;13.768;2023-04-24T07:09:22;0.63;;;0.63;;
19739;SDS011;10027;51.066;13.768;2023-04-24T07:11:49;2.00;;;0.77;;
19739;SDS011;10027;51.066;13.768;2023-04-24T07:14:17;1.83;;;0.43;;
19739;SDS011;10027;51.066;13.768;2023-04-24T07:16:44;0.60;;;0.40;;
19739;SDS011;10027;51.066;13.768;2023-04-24T07:19:12;2.73;;;0.70;;
19739;SDS011;10027;51.066;13.768;2023-04-24T07:21:40;0.70;;;0.40;;
19739;SDS011;10027;51.066;13.768;2023-04-24T07:24:07;1.73;;;0.70;;
19739;SDS011;10027;51.066;13.768;2023-04-24T07:26:39;0.70;;;0.60;;
19739;SDS011;10027;51.066;13.768;2023-04-24T07:29:06;1.00;;;0.50;;
19739;SDS011;10027;51.066;13.768;2023-04-24T07:31:34;1.40;;;0.43;;
19739;SDS011;10027;51.066;13.768;2023-04-24T07:34:01;0.50;;;0.40;;
19739;SDS011;10027;51.066;13.768;2023-04-24T07:36:28;0.30;;;0.30;;
19739;SDS011;10027;51.066;13.768;2023-04-24T07:38:55;1.27;;;0.50;;
19739;SDS011;10027;51.066;13.768;2023-04-24T07:41:23;1.30;;;0.47;;
19739;SDS011;10027;51.066;13.768;2023-04-24T07:43:50;0.93;;;0.50;;
19739;SDS011;10027;51.066;13.768;2023-04-24T07:46:19;0.93;;;0.30;;
19739;SDS011;10027;51.066;13.768;2023-04-24T07:48:47;0.30;;;0.30;;
19739;SDS011;10027;51.066;13.768;2023-04-24T07:51:30;0.80;;;0.50;;
19739;SDS011;10027;51.066;13.768;2023-04-24T07:53:59;0.43;;;0.30;;
19739;SDS011;10027;51.066;13.768;2023-04-24T07:56:27;2.23;;;0.50;;
19739;SDS011;10027;51.066;13.768;2023-04-24T07:58:57;2.63;;;0.50;;
19739;SDS011;10027;51.066;13.768;2023-04-24T08:01:24;2.07;;;0.47;;
19739;SDS011;10027;51.066;13.768;2023-04-24T08:03:51;1.17;;;0.43;;
19739;SDS011;10027;51.066;13.768;2023-04-24T08:06:18;1.17;;;0.53;;
19739;SDS011;10027;51.066;13.768;2023-04-24T08:08:46;0.40;;;0.30;;
19739;SDS011;10027;51.066;13.768;2023-04-24T08:11:13;0.57;;;0.40;;
19739;SDS011;10027;51.066;13.768;2023-04-24T08:13:40;0.57;;;0.50;;
19739;SDS011;10027;51.066;13.768;2023-04-24T08:16:07;0.40;;;0.40;;
19739;SDS011;10027;51.066;13.768;2023-04-24T08:18:34;2.30;;;0.53;;
19739;SDS011;10027;51.066;13.768;2023-04-24T08:21:02;0.30;;;0.20;;
19739;SDS011;10027;51.066;13.768;2023-04-24T08:23:29;2.73;;;0.50;;
19739;SDS011;10027;51.066;13.768;2023-04-24T08:25:56;0.80;;;0.50;;
19739;SDS011;10027;51.066;13.768;2023-04-24T08:28:23;2.03;;;0.80;;
19739;SDS011;10027;51.066;13.768;2023-04-24T08:30:51;0.40;;;0.40;;
19739;SDS011;10027;51.066;13.768;2023-04-24T08:33:23;1.70;;;0.40;;
19739;SDS011;10027;51.066;13.768;2023-04-24T08:35:51;0.73;;;0.40;;
19739;SDS011;10027;51.066;13.768;2023-04-24T08:38:18;1.43;;;0.43;;
19739;SDS011;10027;51.066;13.768;2023-04-24T08:40:45;1.17;;;0.30;;
19739;SDS011;10027;51.066;13.768;2023-04-24T08:43:15;1.03;;;0.43;;
19739;SDS011;10027;51.066;13.768;2023-04-24T08:45:43;0.50;;;0.40;;
19739;SDS011;10027;51.066;13.768;2023-04-24T08:48:10;0.90;;;0.40;;
19739;SDS011;10027;51.066;13.768;2023-04-24T08:50:52;0.43;;;0.40;;
19739;SDS011;10027;51.066;13.768;2023-04-24T08:53:19;1.33;;;0.40;;
19739;SDS011;10027;51.066;13.768;2023-04-24T08:55:47;1.53;;;0.50;;
19739;SDS011;10027;51.066;13.768;2023-04-24T08:58:16;0.47;;;0.43;;
19739;SDS011;10027;51.066;13.768;2023-04-24T09:00:44;0.80;;;0.50;;
19739;SDS011;10027;51.066;13.768;2023-04-24T09:03:16;1.63;;;0.57;;
19739;SDS011;10027;51.066;13.768;2023-04-24T09:05:44;0.77;;;0.57;;
19739;SDS011;10027;51.066;13.768;2023-04-24T09:08:13;1.37;;;0.30;;
19739;SDS011;10027;51.066;13.768;2023-04-24T09:10:40;1.47;;;0.60;;
19739;SDS011;10027;51.066;13.768;2023-04-24T09:13:08;0.83;;;0.50;;
19739;SDS011;10027;51.066;13.768;2023-04-24T09:15:36;0.60;;;0.40;;
19739;SDS011;10027;51.066;13.768;2023-04-24T09:18:04;0.57;;;0.40;;
19739;SDS011;10027;51.066;13.768;2023-04-24T09:20:31;0.77;;;0.50;;
19739;SDS011;10027;51.066;13.768;2023-04-24T09:22:58;0.93;;;0.50;;
19739;SDS011;10027;51.066;13.768;2023-04-24T09:25:31;0.63;;;0.40;;
19739;SDS011;10027;51.066;13.768;2023-04-24T09:28:00;0.93;;;0.60;;
19739;SDS011;10027;51.066;13.768;2023-04-24T09:30:28;1.20;;;0.50;;
19739;SDS011;10027;51.066;13.768;2023-04-24T09:33:16;1.00;;;0.40;;
19739;SDS011;10027;51.066;13.768;2023-04-24T09:35:49;2.27;;;0.70;;
19739;SDS011;10027;51.066;13.768;2023-04-24T09:38:17;0.43;;;0.40;;
19739;SDS011;10027;51.066;13.768;2023-04-24T09:40:44;1.90;;;0.60;;
19739;SDS011;10027;51.066;13.768;2023-04-24T09:43:11;1.23;;;0.50;;
19739;SDS011;10027;51.066;13.768;2023-04-24T09:45:39;1.60;;;0.60;;
19739;SDS011;10027;51.066;13.768;2023-04-24T09:48:09;1.97;;;0.80;;
19739;SDS011;10027;51.066;13.768;2023-04-24T09:50:37;1.40;;;0.60;;
19739;SDS011;10027;51.066;13.768;2023-04-24T09:53:05;1.43;;;0.43;;
19739;SDS011;10027;51.066;13.768;2023-04-24T09:55:40;0.60;;;0.50;;
19739;SDS011;10027;51.066;13.768;2023-04-24T09:58:12;0.30;;;0.30;;
19739;SDS011;10027;51.066;13.768;2023-04-24T10:00:39;0.40;;;0.40;;
19739;SDS011;10027;51.066;13.768;2023-04-24T10:03:07;0.80;;;0.47;;
19739;SDS011;10027;51.066;13.768;2023-04-24T10:05:35;1.40;;;0.40;;
19739;SDS011;10027;51.066;13.768;2023-04-24T10:08:03;0.83;;;0.50;;
19739;SDS011;10027;51.066;13.768;2023-04-24T10:10:31;1.17;;;0.60;;
19739;SDS011;10027;51.066;13.768;2023-04-24T10:12:59;2.07;;;0.53;;
19739;SDS011;10027;51.066;13.768;2023-04-24T10:15:27;0.43;;;0.20;;
19739;SDS011;10027;51.066;13.768;2023-04-24T10:17:54;0.40;;;0.40;;
19739;SDS011;10027;51.066;13.768;2023-04-24T10:20:22;1.17;;;0.50;;
19739;SDS011;10027;51.066;13.768;2023-04-24T10:22:51;0.90;;;0.60;;
19739;SDS011;10027;51.066;13.768;2023-04-24T10:25:19;0.87;;;0.60;;
19739;SDS011;10027;51.066;13.768;2023-04-24T10:27:47;1.60;;;0.60;;
19739;SDS011;10027;51.066;13.768;2023-04-24T10:30:15;1.03;;;0.40;;
19739;SDS011;10027;51.066;13.768;2023-04-24T10:32:42;0.93;;;0.40;;
19739;SDS011;10027;51.066;13.768;2023-04-24T10:35:10;0.60;;;0.30;;
19739;SDS011;10027;51.066;13.768;2023-04-24T10:37:39;3.23;;;0.50;;
19739;SDS011;10027;51.066;13.768;2023-04-24T10:40:07;0.57;;;0.30;;
19739;SDS011;10027;51.066;13.768;2023-04-24T10:42:35;1.77;;;0.40;;
19739;SDS011;10027;51.066;13.768;2023-04-24T10:45:05;1.03;;;0.37;;
19739;SDS011;10027;51.066;13.768;2023-04-24T10:47:39;0.87;;;0.30;;
19739;SDS011;10027;51.066;13.768;2023-04-24T10:50:10;0.50;;;0.40;;
19739;SDS011;10027;51.066;13.768;2023-04-24T10:52:44;0.57;;;0.33;;
19739;SDS011;10027;51.066;13.768;2023-04-24T10:55:12;0.40;;;0.40;;
19739;SDS011;10027;51.066;13.768;2023-04-24T10:57:47;1.70;;;0.53;;
19739;SDS011;10027;51.066;13.768;2023-04-24T11:00:27;0.90;;;0.50;;
19739;SDS011;10027;51.066;13.768;2023-04-24T11:02:54;0.60;;;0.40;;
19739;SDS011;10027;51.066;13.768;2023-04-24T11:05:48;0.80;;;0.40;;
19739;SDS011;10027;51.066;13.768;2023-04-24T11:08:10;0.60;;;0.40;;
19739;SDS011;10027;51.066;13.768;2023-04-24T11:10:54;0.43;;;0.30;;
19739;SDS011;10027;51.066;13.768;2023-04-24T11:13:21;0.70;;;0.50;;
19739;SDS011;10027;51.066;13.768;2023-04-24T11:18:38;0.80;;;0.60;;
19739;SDS011;10027;51.066;13.768;2023-04-24T11:21:09;2.13;;;0.57;;
19739;SDS011;10027;51.066;13.768;2023-04-24T11:23:37;1.10;;;0.50;;
19739;SDS011;10027;51.066;13.768;2023-04-24T11:26:11;0.40;;;0.37;;
19739;SDS011;10027;51.066;13.768;2023-04-24T11:28:49;1.03;;;0.60;;
19739;SDS011;10027;51.066;13.768;2023-04-24T11:31:36;0.77;;;0.50;;
19739;SDS011;10027;51.066;13.768;2023-04-24T11:34:10;0.30;;;0.30;;
19739;SDS011;10027;51.066;13.768;2023-04-24T11:36:38;0.37;;;0.30;;
19739;SDS011;10027;51.066;13.768;2023-04-24T11:39:06;0.33;;;0.33;;
19739;SDS011;10027;51.066;13.768;2023-04-24T11:41:34;2.10;;;0.57;;
19739;SDS011;10027;51.066;13.768;2023-04-24T11:44:01;1.57;;;0.50;;
19739;SDS011;10027;51.066;13.768;2023-04-24T11:46:30;0.70;;;0.50;;
19739;SDS011;10027;51.066;13.768;2023-04-24T11:48:58;0.50;;;0.40;;
19739;SDS011;10027;51.066;13.768;2023-04-24T11:51:27;0.73;;;0.50;;
19739;SDS011;10027;51.066;13.768;2023-04-24T11:54:07;0.37;;;0.30;;
19739;SDS011;10027;51.066;13.768;2023-04-24T11:56:35;0.47;;;0.33;;
19739;SDS011;10027;51.066;13.768;2023-04-24T11:59:03;0.77;;;0.40;;
19739;SDS011;10027;51.066;13.768;2023-04-24T12:01:42;0.67;;;0.33;;
19739;SDS011;10027;51.066;13.768;2023-04-24T12:04:09;0.83;;;0.40;;
19739;SDS011;10027;51.066;13.768;2023-04-24T12:06:36;1.93;;;0.50;;
19739;SDS011;10027;51.066;13.768;2023-04-24T12:09:03;0.43;;;0.43;;
19739;SDS011;10027;51.066;13.768;2023-04-24T12:11:52;0.40;;;0.40;;
19739;SDS011;10027;51.066;13.768;2023-04-24T12:14:19;0.83;;;0.50;;
19739;SDS011;10027;51.066;13.768;2023-04-24T12:16:49;1.50;;;0.57;;
19739;SDS011;10027;51.066;13.768;2023-04-24T12:19:23;1.43;;;0.73;;
19739;SDS011;10027;51.066;13.768;2023-04-24T12:22:04;1.53;;;0.60;;
19739;SDS011;10027;51.066;13.768;2023-04-24T12:24:31;2.70;;;0.80;;
19739;SDS011;10027;51.066;13.768;2023-04-24T12:26:59;1.27;;;0.60;;
19739;SDS011;10027;51.066;13.768;2023-04-24T12:29:27;1.23;;;0.50;;
19739;SDS011;10027;51.066;13.768;2023-04-24T12:31:54;1.00;;;0.87;;
19739;SDS011;10027;51.066;13.768;2023-04-24T12:34:22;0.60;;;0.57;;
19739;SDS011;10027;51.066;13.768;2023-04-24T12:36:51;0.50;;;0.50;;
19739;SDS011;10027;51.066;13.768;2023-04-24T12:39:18;0.70;;;0.50;;
19739;SDS011;10027;51.066;13.768;2023-04-24T12:42:03;3.50;;;0.60;;
19739;SDS011;10027;51.066;13.768;2023-04-24T12:44:31;0.77;;;0.70;;
19739;SDS011;10027;51.066;13.768;2023-04-24T12:47:00;0.90;;;0.70;;
19739;SDS011;10027;51.066;13.768;2023-04-24T12:49:29;2.03;;;0.83;;
19739;SDS011;10027;51.066;13.768;2023-04-24T12:51:56;1.70;;;0.60;;
19739;SDS011;10027;51.066;13.768;2023-04-24T12:54:23;1.73;;;0.80;;
19739;SDS011;10027;51.066;13.768;2023-04-24T12:56:51;0.80;;;0.70;;
19739;SDS011;10027;51.066;13.768;2023-04-24T12:59:18;1.93;;;0.77;;
19739;SDS011;10027;51.066;13.768;2023-04-24T13:01:45;0.70;;;0.60;;
19739;SDS011;10027;51.066;13.768;2023-04-24T13:04:12;1.43;;;0.60;;
19739;SDS011;10027;51.066;13.768;2023-04-24T13:06:40;0.60;;;0.60;;
19739;SDS011;10027;51.066;13.768;2023-04-24T13:09:07;1.37;;;0.73;;
19739;SDS011;10027;51.066;13.768;2023-04-24T13:11:34;1.13;;;0.80;;
19739;SDS011;10027;51.066;13.768;2023-04-24T13:14:01;0.70;;;0.70;;
19739;SDS011;10027;51.066;13.768;2023-04-24T13:16:28;0.87;;;0.70;;
19739;SDS011;10027;51.066;13.768;2023-04-24T13:18:56;1.00;;;0.90;;
19739;SDS011;10027;51.066;13.768;2023-04-24T13:21:23;1.00;;;0.63;;
19739;SDS011;10027;51.066;13.768;2023-04-24T13:23:50;2.67;;;0.83;;
19739;SDS011;10027;51.066;13.768;2023-04-24T13:26:17;2.53;;;0.90;;
19739;SDS011;10027;51.066;13.768;2023-04-24T13:28:44;1.03;;;0.70;;
19739;SDS011;10027;51.066;13.768;2023-04-24T13:31:12;1.13;;;0.80;;
19739;SDS011;10027;51.066;13.768;2023-04-24T13:33:39;0.80;;;0.80;;
19739;SDS011;10027;51.066;13.768;2023-04-24T13:36:07;1.40;;;0.80;;
19739;SDS011;10027;51.066;13.768;2023-04-24T13:38:34;1.53;;;0.93;;
19739;SDS011;10027;51.066;13.768;2023-04-24T13:41:01;2.30;;;0.97;;
19739;SDS011;10027;51.066;13.768;2023-04-24T13:43:28;1.33;;;1.00;;
19739;SDS011;10027;51.066;13.768;2023-04-24T13:45:55;1.10;;;0.80;;
19739;SDS011;10027;51.066;13.768;2023-04-24T13:48:23;1.37;;;1.00;;
19739;SDS011;10027;51.066;13.768;2023-04-24T13:50:50;0.77;;;0.63;;
19739;SDS011;10027;51.066;13.768;2023-04-24T13:53:17;0.80;;;0.50;;
19739;SDS011;10027;51.066;13.768;2023-04-24T13:55:44;2.10;;;0.90;;
19739;SDS011;10027;51.066;13.768;2023-04-24T13:58:11;2.70;;;0.80;;
19739;SDS011;10027;51.066;13.768;2023-04-24T14:00:38;0.70;;;0.53;;
19739;SDS011;10027;51.066;13.768;2023-04-24T14:03:06;1.30;;;0.80;;
19739;SDS011;10027;51.066;13.768;2023-04-24T14:05:33;1.17;;;0.83;;
19739;SDS011;10027;51.066;13.768;2023-04-24T14:08:03;1.17;;;0.80;;
19739;SDS011;10027;51.066;13.768;2023-04-24T14:10:30;0.90;;;0.70;;
19739;SDS011;10027;51.066;13.768;2023-04-24T14:12:57;3.37;;;0.80;;
19739;SDS011;10027;51.066;13.768;2023-04-24T14:15:25;1.23;;;0.83;;
19739;SDS011;10027;51.066;13.768;2023-04-24T14:17:52;1.27;;;0.60;;
19739;SDS011;10027;51.066;13.768;2023-04-24T14:20:19;1.17;;;0.70;;
19739;SDS011;10027;51.066;13.768;2023-04-24T14:22:46;1.50;;;0.97;;
19739;SDS011;10027;51.066;13.768;2023-04-24T14:25:13;1.57;;;0.90;;
19739;SDS011;10027;51.066;13.768;2023-04-24T14:27:41;1.10;;;1.00;;
19739;SDS011;10027;51.066;13.768;2023-04-24T14:30:08;1.13;;;0.90;;
19739;SDS011;10027;51.066;13.768;2023-04-24T14:32:36;3.30;;;0.60;;
19739;SDS011;10027;51.066;13.768;2023-04-24T14:35:03;1.17;;;0.83;;
19739;SDS011;10027;51.066;13.768;2023-04-24T14:37:31;4.93;;;0.80;;
19739;SDS011;10027;51.066;13.768;2023-04-24T14:39:58;0.80;;;0.80;;
19739;SDS011;10027;51.066;13.768;2023-04-24T14:42:45;1.10;;;1.00;;
19739;SDS011;10027;51.066;13.768;2023-04-24T14:45:12;0.93;;;0.93;;